< < Back
Terminal Aerodrome Forecast


Current Version              Previous Versions:   1  2  3  4  5  6  7  8  9  

Terminal Aerodrome Forecast

826
FTUS42 KFFC 281947 AAA
TAFATL
TAF AMD
KATL 281947Z 2820/2924 13009KT P6SM SCT050 BKN150
     FM282300 11009KT P6SM BKN050 OVC100
     FM290200 08008KT P6SM VCSH SCT025 BKN040
     FM290500 06010KT 6SM -RA BR OVC020
     FM290900 07010G18KT 6SM -RA BR OVC008
     FM291500 08012G18KT 2SM -RADZ OVC008
     FM292100 05012G20KT 5SM -RA OVC015=



Latest METAR

565
SAUS70 KWBC 282000
MTRATL
METAR KATL 281952Z 14007KT 10SM FEW060 SCT150 SCT250 22/08 A2986 RMK AO2
SLP106 T02220078


USA.gov is the U.S. government's official web portal to all federal, state and local government web resources and services.